Old Glory — WDH5594 — position and weather

sailwx.info

Track history (hours):
 
Tides and Currents Weather Stations Pressure Air Temp Water Temp Dewpoint Dewpoint Depression Visibility Wind Speed Wind Dir Waves Ship Positions

Old Glory

Owner: Phillips, Joseph M, Murrietta, CA. More information available from US FCC via Universal Licensing System and Coast Guard Vessel Documentation Center.

Last reported at 2017-Dec-30 11:38 UTC. Time now 2018-Feb-24 00:01 UTC.
Position N 32°05' W 118°15'.
Warning: this ship's position is 55 days out of date.

Type: Passenger vessel. MMSI: 367629440.

Date/timePositionNaut miles runAvg speedWind from/ knotsBaromVisibWave heightAir tempDewpointWater temp
2017-Dec-30 11:38N 32°05' W 118°15'40 1.5
2017-Dec-29 09:05N 32°27' W 117°35'1 7.5
2017-Dec-29 09:00N 32°27' W 117°36'4 7.7
2017-Dec-29 08:31N 32°25' W 117°40'4 7.7
2017-Dec-29 08:01N 32°23' W 117°43'4 7.6
2017-Dec-29 07:31N 32°21' W 117°47'4 7.7
2017-Dec-29 07:00N 32°19' W 117°51'4 7.5
2017-Dec-29 06:29N 32°17' W 117°55'  
2017-Dec-22 13:11N 32°43' W 117°13'7 5.8
2017-Dec-22 12:00N 32°37' W 117°16'12 5.9
2017-Dec-22 10:00N 32°35' W 117°30'3 6.1
2017-Dec-22 09:30N 32°33' W 117°33'3 6.1
2017-Dec-22 08:59N 32°31' W 117°36'3 6.0
2017-Dec-22 08:27N 32°29' W 117°39'  
Track history (hours):
 
Tides and Currents Weather Stations Pressure Air Temp Water Temp Dewpoint Dewpoint Depression Visibility Wind Speed Wind Dir Waves Ship Positions

Old Glory

Owner: Phillips, Joseph M, Murrietta, CA. More information available from US FCC via Universal Licensing System and Coast Guard Vessel Documentation Center.

Last reported at 2017-Dec-30 11:38 UTC. Time now 2018-Feb-24 00:01 UTC.
Position N 32°05' W 118°15'.
Warning: this ship's position is 55 days out of date.

Type: Passenger vessel. MMSI: 367629440.

Date/timePositionNaut miles runAvg speedWind from/ knotsBaromVisibWave heightAir tempDewpointWater temp
2017-Dec-30 11:38N 32°05' W 118°15'40 1.5
2017-Dec-29 09:05N 32°27' W 117°35'1 7.5
2017-Dec-29 09:00N 32°27' W 117°36'4 7.7
2017-Dec-29 08:31N 32°25' W 117°40'4 7.7
2017-Dec-29 08:01N 32°23' W 117°43'4 7.6
2017-Dec-29 07:31N 32°21' W 117°47'4 7.7
2017-Dec-29 07:00N 32°19' W 117°51'4 7.5
2017-Dec-29 06:29N 32°17' W 117°55'  
2017-Dec-22 13:11N 32°43' W 117°13'7 5.8
2017-Dec-22 12:00N 32°37' W 117°16'12 5.9
2017-Dec-22 10:00N 32°35' W 117°30'3 6.1
2017-Dec-22 09:30N 32°33' W 117°33'3 6.1
2017-Dec-22 08:59N 32°31' W 117°36'3 6.0
2017-Dec-22 08:27N 32°29' W 117°39'  

Dump ship's entire track history